Time;durP1;ratioP1;P1;durP2;ratioP2;P2;SDS_P1;SDS_P2;PMS_P1;PMS_P2;Temp;Humidity;BMP_temperature;BMP_pressure;BME280_temperature;BME280_humidity;BME280_pressure;Samples;Min_cycle;Max_cycle;Signal;HPM_P1;HPM_P2
2021/09/17 00:01:53;;;;;;;31.43;20.90;;;13.20;99.90;;;;;;4857491;29;20703;-72
2021/09/17 00:04:24;;;;;;;30.43;19.20;;;13.30;99.90;;;;;;4876466;29;20198;-72
2021/09/17 00:06:53;;;;;;;28.37;18.83;;;13.30;99.90;;;;;;4868029;29;20230;-72
2021/09/17 00:09:22;;;;;;;31.77;20.90;;;13.30;99.90;;;;;;4872828;29;20294;-72
2021/09/17 00:11:51;;;;;;;34.50;22.83;;;13.30;99.90;;;;;;4872646;29;20356;-72
2021/09/17 00:14:22;;;;;;;32.37;21.67;;;13.30;99.90;;;;;;4861554;29;20203;-72
2021/09/17 00:16:51;;;;;;;34.13;21.33;;;13.30;99.90;;;;;;4877790;29;20215;-72
2021/09/17 00:19:20;;;;;;;32.77;20.40;;;13.30;99.90;;;;;;4872529;29;20207;-73
2021/09/17 00:21:53;;;;;;;30.27;20.70;;;13.20;99.90;;;;;;4876399;29;20199;-72
2021/09/17 00:24:22;;;;;;;34.10;20.07;;;13.20;99.90;;;;;;4877585;29;20750;-72
2021/09/17 00:26:50;;;;;;;32.17;20.37;;;13.20;99.90;;;;;;4875259;29;20203;-73
2021/09/17 00:29:19;;;;;;;31.47;20.83;;;13.20;99.90;;;;;;4869622;29;20647;-72
2021/09/17 00:31:48;;;;;;;29.77;20.50;;;13.20;99.90;;;;;;4855386;29;20195;-72
2021/09/17 00:34:17;;;;;;;33.93;21.70;;;13.10;99.90;;;;;;4874585;29;20199;-73
2021/09/17 00:36:46;;;;;;;30.37;20.73;;;13.20;99.90;;;;;;4876004;29;20301;-72
2021/09/17 00:39:16;;;;;;;25.07;19.37;;;13.20;99.90;;;;;;4868939;29;20291;-72
2021/09/17 00:41:45;;;;;;;31.40;20.43;;;13.20;99.90;;;;;;4861503;29;20234;-72
2021/09/17 00:44:22;;;;;;;30.77;20.93;;;13.20;99.90;;;;;;4869565;29;20230;-72
2021/09/17 00:46:52;;;;;;;33.43;22.27;;;13.10;99.90;;;;;;4878311;29;20890;-72
2021/09/17 00:49:22;;;;;;;32.97;21.27;;;13.10;99.90;;;;;;4871630;29;20202;-72
2021/09/17 00:51:51;;;;;;;31.90;21.03;;;13.10;99.90;;;;;;4875463;29;20199;-72
2021/09/17 00:54:22;;;;;;;29.93;20.77;;;13.10;99.90;;;;;;4873455;29;20203;-72
2021/09/17 00:56:50;;;;;;;27.80;20.23;;;13.10;99.90;;;;;;4873753;29;20202;-72
2021/09/17 00:59:20;;;;;;;33.53;22.07;;;13.00;99.90;;;;;;4870091;29;20682;-72
2021/09/17 01:01:49;;;;;;;35.27;22.70;;;13.00;99.90;;;;;;4869158;29;20234;-72
2021/09/17 01:04:18;;;;;;;34.83;20.70;;;12.90;99.90;;;;;;4870538;29;20194;-72
2021/09/17 01:06:47;;;;;;;30.63;20.40;;;12.90;99.90;;;;;;4876626;29;20610;-72
2021/09/17 01:09:16;;;;;;;36.73;21.97;;;12.90;99.90;;;;;;4871585;29;20831;-72
2021/09/17 01:11:46;;;;;;;31.13;21.80;;;12.80;99.90;;;;;;4875163;29;20322;-72
2021/09/17 01:14:15;;;;;;;33.40;20.90;;;12.80;99.90;;;;;;4869072;29;20650;-72
2021/09/17 01:16:45;;;;;;;35.13;22.37;;;12.80;99.90;;;;;;4876010;29;20726;-72
2021/09/17 01:19:13;;;;;;;31.83;21.07;;;12.80;99.90;;;;;;4876569;29;20250;-72
2021/09/17 01:21:44;;;;;;;32.73;22.67;;;12.80;99.90;;;;;;4875971;29;20286;-72
2021/09/17 01:24:13;;;;;;;32.27;22.53;;;12.80;99.90;;;;;;4854416;29;20293;-72
2021/09/17 01:26:41;;;;;;;34.77;23.30;;;12.80;99.90;;;;;;4874149;29;20203;-72
2021/09/17 01:29:10;;;;;;;40.50;23.67;;;12.80;99.90;;;;;;4870806;29;20214;-72
2021/09/17 01:31:39;;;;;;;32.53;22.80;;;12.80;99.90;;;;;;4870572;29;20230;-72
2021/09/17 01:34:10;;;;;;;34.33;22.27;;;12.70;99.90;;;;;;4870331;29;20207;-72
2021/09/17 01:36:39;;;;;;;32.90;21.53;;;12.70;99.90;;;;;;4875008;29;20198;-72
2021/09/17 01:39:10;;;;;;;34.83;22.20;;;12.60;99.90;;;;;;4854333;29;20716;-72
2021/09/17 01:41:40;;;;;;;32.90;21.67;;;12.60;99.90;;;;;;4875238;29;20242;-72
2021/09/17 01:44:10;;;;;;;39.47;23.10;;;12.60;99.90;;;;;;4855055;29;20285;-72
2021/09/17 01:46:39;;;;;;;34.43;23.47;;;12.50;99.90;;;;;;4873345;29;20238;-72
2021/09/17 01:49:08;;;;;;;34.67;24.23;;;12.50;99.90;;;;;;4875024;29;20744;-72
2021/09/17 01:51:37;;;;;;;38.07;25.97;;;12.50;99.90;;;;;;4874932;29;20289;-72
2021/09/17 01:54:07;;;;;;;37.93;24.80;;;12.50;99.90;;;;;;4870472;29;20202;-72
2021/09/17 01:56:37;;;;;;;38.53;24.30;;;12.50;99.90;;;;;;4873520;29;20587;-72
2021/09/17 01:59:06;;;;;;;39.13;25.27;;;12.50;99.90;;;;;;4872865;29;20702;-72
2021/09/17 02:01:35;;;;;;;36.30;23.50;;;12.40;99.90;;;;;;4872060;29;20233;-72
2021/09/17 02:04:04;;;;;;;39.90;23.97;;;12.40;99.90;;;;;;4865147;29;20679;-72
2021/09/17 02:06:33;;;;;;;37.00;25.30;;;12.40;99.90;;;;;;4871823;29;20677;-72
2021/09/17 02:09:02;;;;;;;39.83;25.00;;;12.40;99.90;;;;;;4873160;29;20203;-72
2021/09/17 02:11:32;;;;;;;33.30;22.80;;;12.40;99.90;;;;;;4872651;29;20199;-72
2021/09/17 02:14:02;;;;;;;37.57;24.63;;;12.40;99.90;;;;;;4874513;29;20241;-72
2021/09/17 02:16:31;;;;;;;38.83;23.33;;;12.40;99.90;;;;;;4875560;29;20543;-72
2021/09/17 02:19:00;;;;;;;40.90;23.03;;;12.30;99.90;;;;;;4879606;29;20296;-72
2021/09/17 02:21:29;;;;;;;37.57;25.53;;;12.30;99.90;;;;;;4876972;29;20238;-72
2021/09/17 02:23:58;;;;;;;41.10;27.17;;;12.20;99.90;;;;;;4878044;29;20198;-72
2021/09/17 02:26:27;;;;;;;46.00;28.53;;;12.20;99.90;;;;;;4875756;29;20247;-72
2021/09/17 02:28:56;;;;;;;43.80;27.83;;;12.20;99.90;;;;;;4876919;29;20404;-72
2021/09/17 02:31:26;;;;;;;44.47;26.57;;;12.30;99.90;;;;;;4856712;29;20211;-72
2021/09/17 02:33:55;;;;;;;44.07;26.50;;;12.30;99.90;;;;;;4883500;29;20199;-72
2021/09/17 02:36:24;;;;;;;42.93;27.57;;;12.30;99.90;;;;;;4872456;29;20780;-72
2021/09/17 02:38:52;;;;;;;44.23;26.90;;;12.30;99.90;;;;;;4859330;29;20472;-72
2021/09/17 02:41:21;;;;;;;42.93;25.17;;;12.30;99.90;;;;;;4861590;29;20266;-72
2021/09/17 02:43:50;;;;;;;41.80;27.07;;;12.30;99.90;;;;;;4875385;29;20191;-72
2021/09/17 02:46:19;;;;;;;42.60;26.63;;;12.30;99.90;;;;;;4880881;29;20203;-72
2021/09/17 02:48:49;;;;;;;43.50;27.90;;;12.20;99.90;;;;;;4876194;29;20199;-72
2021/09/17 02:51:18;;;;;;;49.20;30.10;;;12.30;99.90;;;;;;4872414;29;20207;-72
2021/09/17 02:53:47;;;;;;;50.20;28.67;;;12.30;99.90;;;;;;4875536;29;20199;-72
2021/09/17 02:56:18;;;;;;;49.07;28.97;;;12.20;99.90;;;;;;4873737;29;20325;-72
2021/09/17 02:58:47;;;;;;;53.60;30.77;;;12.20;99.90;;;;;;4874527;29;20214;-72
2021/09/17 03:01:16;;;;;;;48.60;29.93;;;12.20;99.90;;;;;;4880112;29;20230;-72
2021/09/17 03:03:45;;;;;;;53.13;31.50;;;12.20;99.90;;;;;;4875516;29;20551;-72
2021/09/17 03:06:16;;;;;;;50.37;30.57;;;12.30;99.90;;;;;;4877085;29;20723;-72
2021/09/17 03:08:44;;;;;;;53.80;31.90;;;12.30;99.90;;;;;;4878653;29;20611;-73
2021/09/17 03:11:17;;;;;;;50.23;30.73;;;12.30;99.90;;;;;;4843923;29;20321;-72
2021/09/17 03:14:28;;;;;;;47.20;30.30;;;12.30;99.90;;;;;;4878293;29;20211;-72
2021/09/17 03:16:57;;;;;;;51.13;31.37;;;12.20;99.90;;;;;;4859492;29;20677;-72
2021/09/17 03:19:26;;;;;;;46.27;30.00;;;12.20;99.90;;;;;;4874248;29;20239;-72
2021/09/17 03:21:59;;;;;;;48.63;30.67;;;12.20;99.90;;;;;;4874925;29;20202;-72
2021/09/17 03:24:29;;;;;;;50.37;29.87;;;12.10;99.90;;;;;;4881190;29;20198;-72
2021/09/17 03:26:58;;;;;;;47.77;30.37;;;12.10;99.90;;;;;;4875247;29;20233;-72
2021/09/17 03:29:26;;;;;;;48.77;30.23;;;12.00;99.90;;;;;;4860832;29;20190;-72
2021/09/17 03:31:55;;;;;;;50.77;28.37;;;12.00;99.90;;;;;;4869830;29;20208;-72
2021/09/17 03:34:24;;;;;;;47.27;28.63;;;12.00;99.90;;;;;;4872356;29;20658;-72
2021/09/17 03:36:54;;;;;;;47.67;28.53;;;12.00;99.90;;;;;;4872979;29;20689;-72
2021/09/17 03:39:24;;;;;;;41.47;27.00;;;11.90;99.90;;;;;;4876313;29;20238;-72
2021/09/17 03:41:52;;;;;;;42.53;26.33;;;11.90;99.90;;;;;;4876003;29;20730;-72
2021/09/17 03:44:21;;;;;;;38.30;24.20;;;11.80;99.90;;;;;;4875241;29;20230;-72
2021/09/17 03:46:50;;;;;;;40.77;25.73;;;11.70;99.90;;;;;;4879792;29;20290;-72
2021/09/17 03:49:19;;;;;;;35.37;23.37;;;11.70;99.90;;;;;;4874615;29;20191;-72
2021/09/17 03:51:48;;;;;;;41.07;24.53;;;11.60;99.90;;;;;;4874218;29;20203;-72
2021/09/17 03:54:21;;;;;;;36.87;23.23;;;11.50;99.90;;;;;;4866267;29;20204;-73
2021/09/17 03:56:50;;;;;;;35.67;23.53;;;11.50;99.90;;;;;;4855599;29;20613;-72
2021/09/17 03:59:19;;;;;;;40.83;25.50;;;11.50;99.90;;;;;;4874855;29;20227;-72
2021/09/17 04:01:50;;;;;;;40.60;24.83;;;11.40;99.90;;;;;;4875189;29;20211;-72
2021/09/17 04:04:19;;;;;;;32.80;23.60;;;11.40;99.90;;;;;;4875806;29;20194;-72
2021/09/17 04:06:48;;;;;;;37.70;23.73;;;11.30;99.90;;;;;;4871659;29;20608;-72
2021/09/17 04:09:18;;;;;;;45.07;25.27;;;11.30;99.90;;;;;;4874447;29;20277;-72
2021/09/17 04:11:49;;;;;;;39.10;25.80;;;11.30;99.90;;;;;;4875392;29;20593;-72
2021/09/17 04:14:21;;;;;;;40.37;26.97;;;11.30;99.90;;;;;;4856042;29;20694;-72
2021/09/17 04:17:31;;;;;;;45.37;28.10;;;11.30;99.90;;;;;;4863700;29;20222;-73
2021/09/17 04:20:01;;;;;;;44.07;27.67;;;11.30;99.90;;;;;;4857065;29;20659;-72
2021/09/17 04:22:29;;;;;;;42.90;26.03;;;11.20;99.90;;;;;;4872991;29;20199;-72
2021/09/17 04:25:00;;;;;;;34.97;24.23;;;11.20;99.90;;;;;;4873586;29;20691;-72
2021/09/17 04:27:29;;;;;;;33.93;22.67;;;11.20;99.90;;;;;;4875860;29;20218;-71
2021/09/17 04:29:59;;;;;;;39.10;25.50;;;11.20;99.90;;;;;;4868291;29;20199;-72
2021/09/17 04:32:28;;;;;;;42.77;27.30;;;11.20;99.90;;;;;;4874126;29;20255;-72
2021/09/17 04:34:57;;;;;;;49.33;29.00;;;11.20;99.90;;;;;;4870410;29;20353;-72
2021/09/17 04:37:26;;;;;;;39.90;25.17;;;11.20;99.90;;;;;;4870663;29;20887;-72
2021/09/17 04:39:54;;;;;;;48.00;27.83;;;11.10;99.90;;;;;;4873406;29;20238;-72
2021/09/17 04:42:25;;;;;;;42.07;27.17;;;11.10;99.90;;;;;;4854580;29;20718;-72
2021/09/17 04:44:54;;;;;;;51.43;29.03;;;11.00;99.90;;;;;;4857535;29;20206;-72
2021/09/17 04:47:22;;;;;;;51.50;30.93;;;11.10;99.90;;;;;;4872428;29;21845;-72
2021/09/17 04:49:51;;;;;;;55.47;31.83;;;11.10;99.90;;;;;;4854975;29;20401;-72
2021/09/17 04:52:40;;;;;;;69.90;35.77;;;11.20;99.90;;;;;;4853203;29;20206;-72
2021/09/17 04:55:10;;;;;;;77.33;36.07;;;11.30;99.90;;;;;;4876225;29;20777;-72
2021/09/17 04:57:41;;;;;;;72.67;36.33;;;11.30;99.90;;;;;;4874846;29;20198;-71
2021/09/17 05:00:10;;;;;;;68.00;33.47;;;11.40;99.90;;;;;;4873492;29;20714;-72
2021/09/17 05:02:39;;;;;;;77.33;38.60;;;11.40;99.90;;;;;;4873587;29;20202;-72
2021/09/17 05:05:12;;;;;;;80.07;39.67;;;11.40;99.90;;;;;;4873833;29;20194;-72
2021/09/17 05:07:41;;;;;;;78.13;40.10;;;11.50;99.90;;;;;;4870057;29;20569;-72
2021/09/17 05:10:12;;;;;;;71.53;37.37;;;11.50;99.90;;;;;;4858583;29;20313;-72
2021/09/17 05:12:42;;;;;;;75.87;39.73;;;11.40;99.90;;;;;;4873759;29;20191;-72
2021/09/17 05:15:12;;;;;;;80.27;39.90;;;11.40;99.90;;;;;;4869590;29;20230;-72
2021/09/17 05:17:45;;;;;;;74.23;38.00;;;11.40;99.90;;;;;;4873855;29;20203;-72
2021/09/17 05:20:15;;;;;;;76.27;38.27;;;11.40;99.90;;;;;;4870635;29;20246;-72
2021/09/17 05:22:43;;;;;;;73.83;37.00;;;11.40;99.90;;;;;;4873646;29;20211;-72
2021/09/17 05:25:13;;;;;;;83.20;39.63;;;11.40;99.90;;;;;;4872320;29;20559;-72
2021/09/17 05:27:43;;;;;;;78.83;38.10;;;11.40;99.90;;;;;;4863956;29;20353;-72
2021/09/17 05:30:12;;;;;;;75.70;37.77;;;11.40;99.90;;;;;;4868546;29;20242;-72
2021/09/17 05:32:43;;;;;;;81.07;38.53;;;11.40;99.90;;;;;;4872046;29;20234;-72
2021/09/17 05:35:12;;;;;;;84.67;38.90;;;11.40;99.90;;;;;;4869081;29;20202;-72
2021/09/17 05:37:41;;;;;;;78.20;37.87;;;11.30;99.90;;;;;;4872479;29;20745;-72
2021/09/17 05:40:11;;;;;;;105.17;44.57;;;11.20;99.90;;;;;;4852943;29;20206;-72
2021/09/17 05:42:40;;;;;;;111.70;48.17;;;11.30;99.90;;;;;;4872621;29;20210;-72
2021/09/17 05:45:12;;;;;;;110.67;48.80;;;11.50;99.90;;;;;;4873324;29;20314;-72
2021/09/17 05:47:43;;;;;;;111.80;48.07;;;11.70;99.90;;;;;;4871088;29;20729;-72
2021/09/17 05:50:13;;;;;;;111.53;48.43;;;11.80;99.90;;;;;;4866523;29;20247;-72
2021/09/17 05:52:42;;;;;;;116.47;48.97;;;11.90;99.90;;;;;;4873459;29;20289;-72
2021/09/17 05:55:12;;;;;;;113.13;47.43;;;12.00;99.90;;;;;;4874193;29;20210;-72
2021/09/17 05:57:40;;;;;;;114.33;48.77;;;12.00;99.90;;;;;;4843171;29;20255;-72
2021/09/17 06:00:13;;;;;;;111.83;48.50;;;12.10;99.90;;;;;;4872599;29;20230;-72
2021/09/17 06:02:42;;;;;;;111.43;48.97;;;12.10;99.90;;;;;;4870432;29;20287;-72
2021/09/17 06:05:12;;;;;;;118.07;50.10;;;12.20;99.90;;;;;;4864630;29;20195;-72
2021/09/17 06:07:42;;;;;;;110.33;49.70;;;12.20;99.90;;;;;;4872928;29;20273;-72
2021/09/17 06:10:12;;;;;;;113.80;49.60;;;12.30;99.90;;;;;;4861932;29;20767;-72
2021/09/17 06:12:41;;;;;;;118.60;50.43;;;12.30;99.90;;;;;;4882539;29;20673;-72
2021/09/17 06:15:12;;;;;;;124.33;48.93;;;12.40;99.90;;;;;;4860176;29;20206;-72
2021/09/17 06:17:43;;;;;;;115.70;49.47;;;12.40;99.90;;;;;;4870126;29;20738;-72
2021/09/17 06:20:13;;;;;;;118.33;49.47;;;12.40;99.90;;;;;;4868661;29;20205;-72
2021/09/17 06:22:45;;;;;;;120.47;50.63;;;12.50;99.90;;;;;;4884947;29;20198;-72
2021/09/17 06:25:16;;;;;;;123.97;50.47;;;12.60;99.90;;;;;;4876661;29;20651;-72
2021/09/17 06:27:45;;;;;;;109.23;48.43;;;12.70;99.90;;;;;;4881686;29;20543;-72
2021/09/17 06:30:17;;;;;;;120.50;48.53;;;12.70;99.90;;;;;;4884978;29;20645;-72
2021/09/17 06:32:46;;;;;;;114.83;49.73;;;12.80;99.90;;;;;;4869885;29;20211;-73
2021/09/17 06:35:15;;;;;;;124.83;51.70;;;12.90;99.90;;;;;;4870528;29;20250;-72
2021/09/17 06:37:49;;;;;;;125.40;50.47;;;12.90;99.90;;;;;;4869041;29;20199;-72
2021/09/17 06:40:19;;;;;;;109.43;48.57;;;13.00;99.90;;;;;;4873997;29;20193;-72
2021/09/17 06:42:48;;;;;;;125.87;49.57;;;13.10;99.90;;;;;;4862688;29;20208;-72
2021/09/17 06:45:18;;;;;;;113.30;47.90;;;13.10;99.90;;;;;;4872816;29;20651;-73
2021/09/17 06:47:48;;;;;;;111.10;47.27;;;13.20;99.90;;;;;;4868748;29;20231;-72
2021/09/17 06:50:19;;;;;;;106.77;46.20;;;13.30;99.90;;;;;;4862833;29;20273;-72
2021/09/17 06:52:49;;;;;;;105.93;45.60;;;13.30;99.90;;;;;;4864119;29;20199;-72
2021/09/17 06:55:19;;;;;;;103.87;47.30;;;13.30;99.90;;;;;;4851419;29;20697;-73
2021/09/17 06:57:50;;;;;;;102.37;46.13;;;13.50;99.90;;;;;;4876020;29;20263;-73
2021/09/17 07:00:22;;;;;;;95.43;43.77;;;13.50;99.90;;;;;;4876427;29;20632;-73
2021/09/17 07:02:51;;;;;;;89.93;42.53;;;13.60;99.90;;;;;;4870210;29;20684;-73
2021/09/17 07:05:21;;;;;;;81.13;41.10;;;13.70;99.90;;;;;;4869017;29;20202;-72
2021/09/17 07:07:50;;;;;;;76.30;38.23;;;13.80;99.90;;;;;;4874360;29;20227;-72
2021/09/17 07:10:22;;;;;;;73.73;38.27;;;13.90;99.90;;;;;;4865971;29;20214;-72
2021/09/17 07:12:53;;;;;;;70.53;36.60;;;14.00;99.90;;;;;;4873519;29;20219;-73
2021/09/17 07:15:24;;;;;;;63.33;35.30;;;14.00;99.90;;;;;;4874413;29;20267;-72
2021/09/17 07:17:53;;;;;;;73.60;37.83;;;14.00;99.90;;;;;;4876285;29;20843;-72
2021/09/17 07:20:22;;;;;;;71.63;37.10;;;14.20;99.90;;;;;;4868531;29;20194;-72
2021/09/17 07:22:51;;;;;;;61.63;34.70;;;14.40;99.90;;;;;;4871559;29;20206;-72
2021/09/17 07:25:20;;;;;;;67.17;36.77;;;14.30;99.90;;;;;;4867412;29;20195;-72
2021/09/17 07:27:49;;;;;;;63.13;35.87;;;14.50;99.90;;;;;;4852754;29;20210;-73
2021/09/17 07:30:19;;;;;;;60.20;34.93;;;14.80;99.90;;;;;;4851735;29;20403;-72
2021/09/17 07:32:50;;;;;;;56.13;33.40;;;15.10;99.90;;;;;;4874315;29;20584;-72
2021/09/17 07:35:21;;;;;;;52.20;30.60;;;15.20;99.90;;;;;;4874382;29;20611;-72
2021/09/17 07:37:50;;;;;;;46.67;29.53;;;15.30;99.90;;;;;;4867302;29;20663;-72
2021/09/17 07:40:20;;;;;;;45.80;28.37;;;15.40;99.90;;;;;;4875438;29;20743;-72
2021/09/17 07:42:49;;;;;;;45.57;28.93;;;15.50;99.90;;;;;;4874790;29;20686;-72
2021/09/17 07:45:21;;;;;;;45.50;26.83;;;15.60;99.90;;;;;;4871588;29;20207;-72
2021/09/17 07:47:51;;;;;;;38.43;25.70;;;15.60;99.90;;;;;;4871183;29;20214;-72
2021/09/17 07:50:20;;;;;;;40.53;26.70;;;15.60;99.90;;;;;;4860384;29;20230;-72
2021/09/17 07:52:49;;;;;;;38.17;25.60;;;15.80;99.90;;;;;;4853460;29;20302;-72
2021/09/17 07:55:18;;;;;;;35.83;25.40;;;15.90;99.90;;;;;;4865190;29;20585;-72
2021/09/17 07:57:47;;;;;;;37.13;24.23;;;16.10;99.90;;;;;;4852162;29;21402;-72
2021/09/17 08:00:17;;;;;;;36.07;24.90;;;16.10;99.90;;;;;;4875676;29;20199;-72
2021/09/17 08:02:46;;;;;;;35.87;24.50;;;16.30;99.90;;;;;;4877001;29;20729;-72
2021/09/17 08:05:18;;;;;;;38.43;24.90;;;16.50;99.90;;;;;;4871034;29;20620;-72
2021/09/17 08:07:47;;;;;;;32.77;22.87;;;16.50;99.90;;;;;;4858781;29;20195;-72
2021/09/17 08:10:15;;;;;;;32.23;22.87;;;16.60;99.90;;;;;;4868366;29;20720;-72
2021/09/17 08:12:44;;;;;;;35.47;24.80;;;16.80;99.90;;;;;;4874379;29;20242;-72
2021/09/17 08:15:13;;;;;;;36.77;25.00;;;16.80;99.90;;;;;;4872162;29;20197;-72
2021/09/17 08:17:42;;;;;;;32.83;23.00;;;17.00;99.90;;;;;;4871214;29;20227;-72
2021/09/17 08:20:12;;;;;;;33.50;23.40;;;17.10;99.90;;;;;;4870606;29;20245;-72
2021/09/17 08:22:42;;;;;;;31.90;22.40;;;17.20;99.90;;;;;;4871749;29;20231;-72
2021/09/17 08:25:12;;;;;;;31.07;22.23;;;17.30;99.90;;;;;;4854021;29;20196;-72
2021/09/17 08:27:41;;;;;;;28.43;21.07;;;17.40;99.90;;;;;;4867345;29;20871;-72
2021/09/17 08:30:11;;;;;;;30.10;21.90;;;17.40;99.90;;;;;;4875787;29;20268;-72
2021/09/17 08:32:40;;;;;;;30.63;22.87;;;17.40;99.90;;;;;;4878894;29;20755;-72
2021/09/17 08:35:11;;;;;;;31.47;22.90;;;17.40;99.90;;;;;;4873346;29;20979;-72
2021/09/17 08:37:42;;;;;;;26.87;20.73;;;17.60;99.90;;;;;;4873558;29;20199;-72
2021/09/17 08:40:15;;;;;;;30.23;21.80;;;17.70;99.90;;;;;;4870017;29;20792;-72
2021/09/17 08:42:44;;;;;;;29.70;21.67;;;17.80;99.90;;;;;;4833773;29;20252;-72
2021/09/17 08:45:13;;;;;;;30.93;21.33;;;17.80;99.90;;;;;;4866172;29;20209;-72
2021/09/17 08:47:47;;;;;;;29.10;21.50;;;17.90;99.90;;;;;;4874208;29;20206;-72
2021/09/17 08:50:16;;;;;;;27.63;21.20;;;18.10;99.90;;;;;;4872845;29;20193;-72
2021/09/17 08:52:46;;;;;;;27.87;19.47;;;18.20;99.90;;;;;;4858548;29;20252;-72
2021/09/17 08:55:15;;;;;;;29.87;22.70;;;18.20;99.90;;;;;;4865945;29;20207;-71
2021/09/17 08:57:44;;;;;;;33.50;21.37;;;18.20;99.90;;;;;;4870191;29;20211;-72
2021/09/17 09:00:39;;;;;;;25.43;18.30;;;18.20;99.90;;;;;;4868084;29;20193;-71
2021/09/17 09:03:11;;;;;;;26.37;18.53;;;18.10;99.90;;;;;;4868660;29;20569;-71
2021/09/17 09:05:42;;;;;;;27.27;19.00;;;18.10;99.90;;;;;;4872667;29;20214;-71
2021/09/17 09:08:12;;;;;;;25.43;18.37;;;18.40;99.90;;;;;;4872511;29;20624;-71
2021/09/17 09:10:41;;;;;;;24.57;18.33;;;18.50;99.90;;;;;;4871360;29;20207;-72
2021/09/17 09:13:09;;;;;;;26.20;18.87;;;18.50;99.90;;;;;;4856238;29;20233;-72
2021/09/17 09:15:38;;;;;;;23.73;17.87;;;18.70;99.90;;;;;;4866827;29;20202;-71
2021/09/17 09:18:11;;;;;;;25.17;18.43;;;18.70;99.90;;;;;;4863941;29;20217;-71
2021/09/17 09:20:42;;;;;;;28.83;18.70;;;18.80;99.90;;;;;;4869718;29;20979;-71
2021/09/17 09:23:18;;;;;;;26.20;18.33;;;18.80;99.90;;;;;;4872127;29;20290;-71
2021/09/17 09:25:56;;;;;;;26.43;18.90;;;19.10;99.90;;;;;;4866719;29;20566;-71
2021/09/17 09:28:27;;;;;;;25.67;18.77;;;19.10;99.90;;;;;;4871899;29;20211;-71
2021/09/17 09:30:58;;;;;;;26.30;18.73;;;19.10;99.90;;;;;;4869996;29;20226;-72
2021/09/17 09:33:31;;;;;;;26.17;19.60;;;19.10;99.90;;;;;;4869775;29;20251;-71
2021/09/17 09:36:06;;;;;;;29.80;20.37;;;19.00;99.90;;;;;;4872667;29;20238;-71
2021/09/17 09:38:42;;;;;;;29.23;20.10;;;19.10;99.90;;;;;;4872565;29;20725;-71
2021/09/17 09:41:13;;;;;;;29.83;19.60;;;19.50;99.90;;;;;;4869190;29;20238;-71
2021/09/17 09:43:49;;;;;;;26.97;18.80;;;19.80;99.90;;;;;;4856205;29;20285;-71
2021/09/17 09:46:26;;;;;;;29.23;20.03;;;19.90;99.90;;;;;;4868736;29;20207;-71
2021/09/17 09:49:15;;;;;;;30.50;20.27;;;19.90;99.90;;;;;;4875238;29;20253;-71
2021/09/17 09:51:54;;;;;;;30.33;20.80;;;19.90;99.90;;;;;;4866017;29;20202;-71
2021/09/17 09:54:28;;;;;;;24.83;17.70;;;20.20;99.90;;;;;;4866364;29;20202;-71
2021/09/17 09:56:57;;;;;;;30.97;20.17;;;20.20;99.90;;;;;;4863932;29;20267;-71
2021/09/17 09:59:27;;;;;;;33.13;20.67;;;20.50;99.90;;;;;;4866834;29;20612;-71
2021/09/17 10:01:59;;;;;;;33.10;20.87;;;20.50;99.90;;;;;;4864996;29;20282;-71
2021/09/17 10:04:30;;;;;;;33.77;21.47;;;20.70;99.90;;;;;;4874479;29;20230;-71
2021/09/17 10:07:03;;;;;;;31.67;21.57;;;20.80;99.90;;;;;;4875009;29;20241;-71
2021/09/17 10:09:35;;;;;;;32.97;20.77;;;20.80;99.90;;;;;;4871027;29;20299;-71
2021/09/17 10:12:07;;;;;;;28.70;19.03;;;20.80;99.90;;;;;;4868587;29;20222;-71
2021/09/17 10:14:37;;;;;;;29.07;18.27;;;20.80;99.90;;;;;;4871080;29;20230;-71
2021/09/17 10:17:08;;;;;;;29.77;20.53;;;21.00;99.90;;;;;;4870106;29;20607;-71
2021/09/17 10:19:38;;;;;;;28.63;18.40;;;21.20;99.90;;;;;;4872232;29;20200;-71
2021/09/17 10:22:07;;;;;;;26.90;18.47;;;21.30;99.90;;;;;;4866620;29;20194;-71
2021/09/17 10:24:39;;;;;;;27.50;18.27;;;21.40;99.90;;;;;;4868367;29;20227;-71
2021/09/17 10:27:18;;;;;;;30.60;19.27;;;21.50;99.90;;;;;;4852305;29;20228;-71
2021/09/17 10:29:57;;;;;;;28.73;19.20;;;21.40;99.90;;;;;;4860661;29;20302;-71
2021/09/17 10:32:35;;;;;;;28.30;19.03;;;21.60;99.90;;;;;;4866194;29;20223;-71
2021/09/17 10:35:11;;;;;;;27.90;19.10;;;21.60;99.90;;;;;;4861832;29;20194;-70
2021/09/17 10:38:15;;;;;;;29.00;19.93;;;21.60;99.90;;;;;;4871310;29;20206;-71
2021/09/17 10:40:53;;;;;;;27.50;18.17;;;21.60;99.90;;;;;;4871536;29;20650;-70
2021/09/17 10:43:25;;;;;;;27.03;18.33;;;21.60;99.90;;;;;;4868933;29;20230;-71
2021/09/17 10:45:55;;;;;;;26.07;19.07;;;21.70;99.90;;;;;;4857378;29;20234;-70
2021/09/17 10:48:25;;;;;;;27.20;18.00;;;21.80;99.90;;;;;;4869533;29;20301;-70
2021/09/17 10:50:57;;;;;;;25.60;17.30;;;21.90;99.90;;;;;;4869222;29;20200;-70
2021/09/17 10:54:05;;;;;;;27.53;18.63;;;21.90;99.90;;;;;;4874505;29;20342;-70
2021/09/17 10:57:10;;;;;;;27.20;18.83;;;21.70;99.90;;;;;;4865271;29;20623;-70
2021/09/17 10:59:47;;;;;;;29.43;18.10;;;21.70;99.90;;;;;;4870902;29;20338;-70
2021/09/17 11:02:16;;;;;;;29.73;19.20;;;21.70;99.90;;;;;;4875363;29;20199;-70
2021/09/17 11:04:51;;;;;;;27.23;17.80;;;21.70;99.90;;;;;;4865227;29;20210;-70
2021/09/17 11:07:34;;;;;;;26.43;17.50;;;21.80;99.90;;;;;;4867598;29;21212;-71
2021/09/17 11:10:22;;;;;;;28.40;19.33;;;21.80;99.90;;;;;;4854687;29;20339;-70
2021/09/17 11:13:04;;;;;;;28.30;20.03;;;21.90;99.90;;;;;;4850198;29;20215;-71
2021/09/17 11:15:33;;;;;;;31.23;19.60;;;21.90;99.90;;;;;;4872894;29;20251;-71
2021/09/17 11:18:08;;;;;;;26.80;17.77;;;22.20;99.90;;;;;;4871604;29;20191;-71
2021/09/17 11:20:37;;;;;;;26.93;17.97;;;22.30;99.90;;;;;;4865812;29;20214;-70
2021/09/17 11:23:08;;;;;;;27.10;16.97;;;22.50;99.90;;;;;;4875491;29;20673;-70
2021/09/17 11:25:39;;;;;;;28.50;18.67;;;22.70;99.90;;;;;;4870552;29;20321;-70
2021/09/17 11:28:27;;;;;;;25.63;18.57;;;22.70;99.90;;;;;;4878636;29;20202;-71
2021/09/17 11:31:09;;;;;;;26.07;18.83;;;22.60;99.90;;;;;;4872786;29;20205;-70
2021/09/17 11:33:38;;;;;;;26.67;18.33;;;22.70;99.90;;;;;;4874646;29;20219;-71
2021/09/17 11:36:07;;;;;;;26.40;18.33;;;22.80;99.90;;;;;;4874997;29;20200;-70
2021/09/17 11:38:35;;;;;;;25.93;18.43;;;22.80;99.90;;;;;;4871774;29;20230;-71
2021/09/17 11:41:04;;;;;;;24.50;17.73;;;22.90;99.90;;;;;;4853584;29;20231;-70
2021/09/17 11:43:49;;;;;;;22.43;17.03;;;22.90;99.90;;;;;;4875309;29;20263;-71
2021/09/17 11:46:26;;;;;;;21.67;17.07;;;22.90;99.90;;;;;;4871954;29;20734;-71
2021/09/17 11:48:54;;;;;;;26.97;18.73;;;22.80;99.90;;;;;;4877102;29;20210;-71
2021/09/17 11:51:24;;;;;;;22.53;16.37;;;22.90;99.90;;;;;;4873956;29;20199;-71
2021/09/17 11:53:52;;;;;;;21.83;16.50;;;23.00;99.90;;;;;;4874297;29;20638;-71
2021/09/17 11:56:21;;;;;;;20.80;16.20;;;23.10;99.90;;;;;;4867290;29;20296;-71
2021/09/17 11:58:51;;;;;;;22.20;17.13;;;23.30;99.90;;;;;;4867204;29;20645;-71
2021/09/17 12:01:22;;;;;;;23.17;17.13;;;23.10;99.90;;;;;;4873083;29;20237;-71
2021/09/17 12:03:55;;;;;;;20.67;15.83;;;22.70;99.90;;;;;;4852528;29;20196;-71
2021/09/17 12:06:25;;;;;;;25.77;18.93;;;22.60;99.90;;;;;;4872534;29;20214;-71
2021/09/17 12:08:57;;;;;;;23.93;17.83;;;22.30;99.90;;;;;;4875582;29;20659;-71
2021/09/17 12:11:26;;;;;;;22.80;17.23;;;22.10;99.90;;;;;;4867535;29;20604;-71
2021/09/17 12:13:58;;;;;;;20.13;15.87;;;21.90;99.90;;;;;;4869120;29;20585;-71
2021/09/17 12:16:26;;;;;;;19.40;16.07;;;21.90;99.90;;;;;;4869411;29;20331;-71
2021/09/17 12:19:03;;;;;;;24.00;18.57;;;21.90;99.90;;;;;;4874867;29;20255;-71
2021/09/17 12:21:32;;;;;;;19.20;15.77;;;22.20;99.90;;;;;;4872249;29;20275;-71
2021/09/17 12:24:20;;;;;;;17.17;14.63;;;22.40;99.90;;;;;;4861916;29;20210;-71
2021/09/17 12:26:53;;;;;;;16.83;13.30;;;22.60;99.90;;;;;;4873498;29;20207;-71
2021/09/17 12:29:23;;;;;;;13.27;11.60;;;22.90;99.90;;;;;;4870621;29;20623;-71
2021/09/17 12:31:52;;;;;;;13.17;11.47;;;23.10;99.90;;;;;;4866625;29;20210;-71
2021/09/17 12:34:23;;;;;;;20.50;13.40;;;23.40;99.90;;;;;;4871001;29;20224;-71
2021/09/17 12:36:56;;;;;;;15.40;12.93;;;23.50;99.90;;;;;;4872197;29;20207;-71
2021/09/17 12:39:27;;;;;;;16.37;12.30;;;23.50;99.90;;;;;;4873459;29;20197;-71
2021/09/17 12:42:09;;;;;;;13.80;11.87;;;23.30;99.90;;;;;;4870010;29;20732;-71
2021/09/17 12:44:44;;;;;;;15.47;12.40;;;23.30;99.90;;;;;;4869707;29;20198;-71
2021/09/17 12:47:57;;;;;;;16.73;13.07;;;23.40;99.90;;;;;;4870882;29;20217;-71